createdAt,value
2023-03-20T00:00:49.672Z,9.14
2023-03-20T00:03:19.190Z,9.14
2023-03-20T00:05:47.010Z,9.12
2023-03-20T00:08:16.372Z,9.11
2023-03-20T00:10:47.306Z,9.10
2023-03-20T00:13:20.619Z,9.09
2023-03-20T00:15:48.352Z,9.09
2023-03-20T00:18:20.420Z,9.10
2023-03-20T00:20:48.862Z,9.07
2023-03-20T00:23:16.820Z,9.07
2023-03-20T00:25:46.704Z,9.05
2023-03-20T00:28:38.986Z,9.04
2023-03-20T00:31:15.038Z,9.03
2023-03-20T00:33:44.066Z,9.02
2023-03-20T00:36:12.024Z,8.99
2023-03-20T00:38:41.232Z,8.98
2023-03-20T00:41:22.688Z,8.98
2023-03-20T00:43:53.366Z,8.96
2023-03-20T00:46:21.367Z,8.95
2023-03-20T00:48:51.771Z,8.94
2023-03-20T00:51:20.578Z,8.92
2023-03-20T00:53:48.262Z,8.91
2023-03-20T00:56:31.786Z,8.92
2023-03-20T00:59:00.383Z,8.92
2023-03-20T01:01:29.068Z,8.90
2023-03-20T01:03:58.722Z,8.91
2023-03-20T01:06:26.449Z,8.92
2023-03-20T01:08:57.681Z,8.93
2023-03-20T01:11:26.886Z,8.95
2023-03-20T01:13:54.630Z,8.96
2023-03-20T01:16:24.116Z,8.97
2023-03-20T01:18:52.143Z,8.97
2023-03-20T01:21:22.224Z,8.98
2023-03-20T01:23:50.918Z,8.99
2023-03-20T01:26:25.911Z,9.01
2023-03-20T01:28:53.664Z,9.01
2023-03-20T01:31:21.521Z,9.02
2023-03-20T01:33:49.489Z,9.01
2023-03-20T01:36:21.153Z,9.03
2023-03-20T01:38:55.000Z,9.02
2023-03-20T01:41:25.548Z,9.02
2023-03-20T01:43:53.835Z,9.03
2023-03-20T01:46:25.385Z,9.03
2023-03-20T01:49:01.527Z,9.01
2023-03-20T01:51:32.839Z,9.02
2023-03-20T01:54:08.932Z,8.99
2023-03-20T01:56:47.900Z,8.99
2023-03-20T01:59:19.625Z,8.98
2023-03-20T02:01:47.910Z,8.98
2023-03-20T02:04:20.609Z,8.97
2023-03-20T02:06:53.560Z,8.94
2023-03-20T02:09:28.328Z,8.92
2023-03-20T02:11:58.248Z,8.91
2023-03-20T02:14:27.643Z,8.89
2023-03-20T02:17:03.373Z,8.86
2023-03-20T02:20:06.396Z,8.84
2023-03-20T02:23:20.679Z,8.82
2023-03-20T02:26:15.631Z,8.80
2023-03-20T02:29:17.531Z,8.79
2023-03-20T02:32:24.768Z,8.81
2023-03-20T02:35:33.082Z,8.84
2023-03-20T02:38:22.617Z,8.87
2023-03-20T02:40:59.895Z,8.90
2023-03-20T02:43:41.189Z,8.94
2023-03-20T02:46:16.587Z,8.99
2023-03-20T02:48:54.441Z,9.04
2023-03-20T02:51:34.464Z,9.06
2023-03-20T02:54:09.404Z,9.08
2023-03-20T02:56:43.543Z,9.11
2023-03-20T02:59:21.496Z,9.14
2023-03-20T03:01:54.454Z,9.17
2023-03-20T03:04:27.372Z,9.22
2023-03-20T03:06:58.624Z,9.21
2023-03-20T03:09:31.625Z,9.23
2023-03-20T03:12:06.865Z,9.24
2023-03-20T03:14:40.282Z,9.25
2023-03-20T03:17:14.803Z,9.25
2023-03-20T03:19:48.267Z,9.28
2023-03-20T03:22:17.156Z,9.29
2023-03-20T03:24:48.375Z,9.30
2023-03-20T03:27:21.773Z,9.31
2023-03-20T03:29:54.829Z,9.32
2023-03-20T03:32:30.592Z,9.34
2023-03-20T03:34:59.451Z,9.37
2023-03-20T03:37:37.120Z,9.37
2023-03-20T03:40:17.649Z,9.40
2023-03-20T03:42:53.608Z,9.42
2023-03-20T03:45:28.386Z,9.42
2023-03-20T03:48:01.218Z,9.43
2023-03-20T03:50:33.149Z,9.42
2023-03-20T03:53:07.190Z,9.44
2023-03-20T03:55:40.584Z,9.43
2023-03-20T03:58:15.032Z,9.47
2023-03-20T04:00:46.279Z,9.47
2023-03-20T04:03:14.296Z,9.49
2023-03-20T04:05:45.427Z,9.51
2023-03-20T04:08:13.090Z,9.52
2023-03-20T04:10:43.382Z,9.52
2023-03-20T04:13:11.828Z,9.53
2023-03-20T04:15:39.659Z,9.53
2023-03-20T04:18:08.779Z,9.54
2023-03-20T04:20:39.783Z,9.54
2023-03-20T04:23:07.744Z,9.51
2023-03-20T04:25:36.993Z,9.51
2023-03-20T04:28:06.341Z,9.48
2023-03-20T04:30:54.089Z,9.40
2023-03-20T04:33:34.601Z,9.31
2023-03-20T04:38:43.528Z,9.17
2023-03-20T04:41:11.196Z,9.11
2023-03-20T04:43:40.283Z,9.05
2023-03-20T04:46:08.539Z,9.01
2023-03-20T04:48:36.653Z,8.96
2023-03-20T04:51:04.733Z,8.92
2023-03-20T04:53:47.918Z,8.86
2023-03-20T04:56:15.898Z,8.83
2023-03-20T04:58:43.783Z,8.80
2023-03-20T05:01:11.970Z,8.75
2023-03-20T05:03:40.271Z,8.73
2023-03-20T05:06:08.989Z,8.71
2023-03-20T05:08:37.778Z,8.68
2023-03-20T05:11:08.767Z,8.66
2023-03-20T05:13:55.773Z,8.63
2023-03-20T05:16:50.052Z,8.62
2023-03-20T05:19:33.343Z,8.63
2023-03-20T05:22:04.055Z,8.61
2023-03-20T05:24:42.004Z,8.61
2023-03-20T05:27:29.312Z,8.61
2023-03-20T05:30:15.968Z,8.60
2023-03-20T05:33:02.238Z,8.61
2023-03-20T05:35:29.898Z,8.61
2023-03-20T05:38:08.868Z,8.60
2023-03-20T05:40:57.537Z,8.59
2023-03-20T05:43:36.220Z,8.59
2023-03-20T05:46:19.567Z,8.60
2023-03-20T05:49:05.671Z,8.60
2023-03-20T05:52:08.560Z,8.61
2023-03-20T05:55:02.586Z,8.62
2023-03-20T05:57:41.971Z,8.62
2023-03-20T06:00:40.001Z,8.61
2023-03-20T06:03:39.656Z,8.61
2023-03-20T06:06:13.218Z,8.64
2023-03-20T06:08:41.878Z,8.64
2023-03-20T06:11:10.350Z,8.64
2023-03-20T06:13:39.276Z,8.65
2023-03-20T06:16:09.630Z,8.67
2023-03-20T06:18:39.113Z,8.68
2023-03-20T06:21:08.460Z,8.68
2023-03-20T06:23:36.294Z,8.69
2023-03-20T06:26:04.025Z,8.70
2023-03-20T06:28:43.408Z,8.73
2023-03-20T06:31:12.388Z,8.76
2023-03-20T06:33:40.895Z,8.77
2023-03-20T06:36:10.244Z,8.82
2023-03-20T06:38:38.303Z,8.87
2023-03-20T06:41:14.923Z,8.91
2023-03-20T06:43:46.834Z,8.96
2023-03-20T06:46:16.187Z,9.01
2023-03-20T06:48:43.822Z,9.07
2023-03-20T06:51:11.620Z,9.14
2023-03-20T06:53:49.409Z,9.18
2023-03-20T06:56:20.669Z,9.26
2023-03-20T06:58:48.288Z,9.31
2023-03-20T07:01:20.341Z,9.36
2023-03-20T07:03:48.658Z,9.44
2023-03-20T07:06:21.565Z,9.53
2023-03-20T07:08:49.322Z,9.61
2023-03-20T07:11:16.958Z,9.65
2023-03-20T07:13:45.131Z,9.73
2023-03-20T07:16:24.469Z,9.81
2023-03-20T07:18:52.581Z,9.87
2023-03-20T07:21:23.910Z,9.93
2023-03-20T07:23:52.052Z,9.97
2023-03-20T07:26:20.145Z,9.98
2023-03-20T07:28:47.786Z,9.97
2023-03-20T07:31:26.063Z,9.96
2023-03-20T07:34:02.361Z,9.89
2023-03-20T07:36:30.619Z,9.87
2023-03-20T07:38:58.316Z,9.84
2023-03-20T07:41:26.731Z,9.85
2023-03-20T07:44:02.554Z,9.85
2023-03-20T07:46:49.965Z,9.81
2023-03-20T07:49:18.745Z,9.80
2023-03-20T07:51:47.781Z,9.81
2023-03-20T07:54:15.957Z,9.82
2023-03-20T07:56:44.104Z,9.84
2023-03-20T07:59:11.755Z,9.89
2023-03-20T08:01:39.350Z,9.92
2023-03-20T08:04:08.715Z,9.97
2023-03-20T08:06:36.615Z,10.00
2023-03-20T08:09:04.533Z,10.03
2023-03-20T08:11:34.440Z,10.04
2023-03-20T08:14:02.466Z,10.06
2023-03-20T08:16:30.612Z,10.08
2023-03-20T08:19:01.288Z,10.08
2023-03-20T08:21:32.081Z,10.09
2023-03-20T08:23:59.993Z,10.14
2023-03-20T08:26:27.754Z,10.15
2023-03-20T08:28:55.635Z,10.19
2023-03-20T08:31:23.312Z,10.24
2023-03-20T08:33:50.917Z,10.29
2023-03-20T08:36:20.425Z,10.29
2023-03-20T08:38:50.784Z,10.31
2023-03-20T08:41:19.284Z,10.34
2023-03-20T08:43:47.630Z,10.39
2023-03-20T08:46:15.576Z,10.42
2023-03-20T08:48:43.345Z,10.44
2023-03-20T08:51:11.421Z,10.43
2023-03-20T08:53:39.047Z,10.42
2023-03-20T08:56:09.985Z,10.40
2023-03-20T08:58:37.623Z,10.43
2023-03-20T09:01:06.726Z,10.48
2023-03-20T09:03:34.406Z,10.54
2023-03-20T09:06:02.250Z,10.60
2023-03-20T09:08:29.863Z,10.62
2023-03-20T09:10:57.524Z,10.64
2023-03-20T09:13:27.964Z,10.71
2023-03-20T09:15:57.026Z,10.80
2023-03-20T09:18:25.305Z,10.85
2023-03-20T09:20:53.213Z,10.88
2023-03-20T09:23:21.167Z,10.90
2023-03-20T09:25:48.969Z,10.91
2023-03-20T09:28:16.724Z,10.93
2023-03-20T09:30:45.892Z,11.01
2023-03-20T09:33:14.860Z,11.08
2023-03-20T09:35:43.764Z,11.17
2023-03-20T09:38:12.336Z,11.17
2023-03-20T09:40:51.368Z,11.23
2023-03-20T09:43:30.964Z,11.30
2023-03-20T09:46:13.790Z,11.34
2023-03-20T09:48:47.875Z,11.36
2023-03-20T09:51:22.458Z,11.41
2023-03-20T09:54:01.078Z,11.45
2023-03-20T09:56:30.965Z,11.47
2023-03-20T09:59:01.556Z,11.45
2023-03-20T10:01:39.045Z,11.45
2023-03-20T10:04:10.357Z,11.44
2023-03-20T10:06:38.360Z,11.41
2023-03-20T10:11:03.594Z,11.48
2023-03-20T10:13:49.286Z,11.48
2023-03-20T10:16:26.265Z,11.48
2023-03-20T10:19:03.301Z,11.48
2023-03-20T10:21:36.903Z,11.53
2023-03-20T10:24:06.655Z,11.58
2023-03-20T10:26:37.390Z,11.63
2023-03-20T10:29:14.751Z,11.66
2023-03-20T10:31:46.374Z,11.66
2023-03-20T10:34:31.802Z,11.68
2023-03-20T10:37:10.958Z,11.67
2023-03-20T10:39:54.842Z,11.69
2023-03-20T10:42:29.289Z,11.70
2023-03-20T10:45:01.168Z,11.72
2023-03-20T10:47:34.857Z,11.71
2023-03-20T10:50:06.752Z,11.71
2023-03-20T10:52:39.118Z,11.78
2023-03-20T10:55:12.432Z,11.83
2023-03-20T10:57:47.467Z,11.86
2023-03-20T11:00:19.948Z,11.89
2023-03-20T11:02:47.936Z,11.91
2023-03-20T11:05:23.697Z,11.94
2023-03-20T11:08:01.054Z,11.95
2023-03-20T11:10:29.396Z,11.91
2023-03-20T11:12:58.513Z,11.90
2023-03-20T11:15:29.944Z,11.91
2023-03-20T11:17:59.498Z,11.91
2023-03-20T11:20:33.472Z,11.91
2023-03-20T11:25:39.270Z,11.89
2023-03-20T11:28:21.661Z,11.86
2023-03-20T11:31:04.014Z,11.85
2023-03-20T11:33:34.826Z,11.81
2023-03-20T11:36:02.929Z,11.79
2023-03-20T11:38:32.733Z,11.77
2023-03-20T11:41:06.251Z,11.77
2023-03-20T11:43:38.790Z,11.77
2023-03-20T11:46:13.788Z,11.77
2023-03-20T11:48:44.413Z,11.88
2023-03-20T11:51:16.394Z,11.98
2023-03-20T11:53:59.504Z,12.16
2023-03-20T11:56:30.491Z,12.28
2023-03-20T11:59:01.053Z,12.35
2023-03-20T12:01:31.269Z,12.39
2023-03-20T12:04:04.176Z,12.45
2023-03-20T12:06:44.178Z,12.49
2023-03-20T12:09:25.000Z,12.54
2023-03-20T12:12:00.172Z,12.64
2023-03-20T12:14:37.034Z,12.83
2023-03-20T12:17:32.800Z,13.00
2023-03-20T12:20:05.108Z,13.20
2023-03-20T12:22:37.424Z,13.39
2023-03-20T12:25:10.282Z,13.54
2023-03-20T12:27:46.054Z,13.66
2023-03-20T12:30:17.856Z,13.72
2023-03-20T12:32:52.493Z,13.65
2023-03-20T12:35:30.667Z,13.61
2023-03-20T12:37:58.697Z,13.58
2023-03-20T12:40:34.650Z,13.59
2023-03-20T12:43:06.802Z,13.57
2023-03-20T12:45:40.406Z,13.51
2023-03-20T12:48:40.686Z,13.43
2023-03-20T12:51:18.490Z,13.37
2023-03-20T12:53:56.306Z,13.31
2023-03-20T12:56:42.702Z,13.32
2023-03-20T12:59:21.400Z,13.21
2023-03-20T13:01:54.180Z,13.14
2023-03-20T13:04:42.879Z,13.11
2023-03-20T13:07:19.120Z,13.09
2023-03-20T13:10:10.182Z,13.13
2023-03-20T13:12:47.734Z,13.26
2023-03-20T13:15:26.377Z,13.44
2023-03-20T13:18:02.633Z,13.53
2023-03-20T13:20:32.796Z,13.64
2023-03-20T13:23:11.662Z,13.67
2023-03-20T13:25:53.861Z,13.75
2023-03-20T13:28:30.981Z,13.81
2023-03-20T13:31:09.183Z,13.95
2023-03-20T13:33:48.715Z,13.94
2023-03-20T13:36:26.631Z,13.97
2023-03-20T13:39:01.705Z,13.99
2023-03-20T13:41:29.708Z,13.98
2023-03-20T13:44:01.230Z,13.97
2023-03-20T13:46:38.019Z,13.84
2023-03-20T13:49:14.549Z,13.79
2023-03-20T13:51:48.622Z,13.77
2023-03-20T13:54:27.855Z,13.87
2023-03-20T13:57:02.024Z,14.01
2023-03-20T13:59:43.147Z,14.14
2023-03-20T14:02:24.126Z,14.21
2023-03-20T14:04:57.318Z,14.13
2023-03-20T14:07:30.218Z,14.01
2023-03-20T14:09:58.136Z,13.89
2023-03-20T14:12:28.099Z,13.83
2023-03-20T14:14:58.214Z,13.72
2023-03-20T14:17:30.023Z,13.59
2023-03-20T14:19:59.042Z,13.43
2023-03-20T14:22:30.493Z,13.34
2023-03-20T14:25:00.892Z,13.27
2023-03-20T14:27:43.835Z,13.26
2023-03-20T14:30:41.933Z,13.23
2023-03-20T14:33:27.045Z,13.13
2023-03-20T14:36:13.694Z,13.03
2023-03-20T14:38:52.020Z,12.99
2023-03-20T14:41:27.483Z,12.98
2023-03-20T14:44:14.119Z,12.96
2023-03-20T14:46:52.628Z,12.95
2023-03-20T14:49:45.968Z,12.87
2023-03-20T14:52:28.163Z,12.82
2023-03-20T14:54:56.147Z,12.79
2023-03-20T14:57:37.675Z,12.78
2023-03-20T15:00:22.828Z,12.77
2023-03-20T15:02:54.535Z,12.78
2023-03-20T15:05:29.332Z,12.78
2023-03-20T15:07:58.976Z,12.77
2023-03-20T15:10:27.196Z,12.73
2023-03-20T15:12:58.002Z,12.70
2023-03-20T15:15:27.616Z,12.68
2023-03-20T15:17:56.010Z,12.60
2023-03-20T15:20:28.803Z,12.55
2023-03-20T15:22:58.439Z,12.47
2023-03-20T15:25:32.293Z,12.42
2023-03-20T15:28:00.506Z,12.36
2023-03-20T15:30:32.042Z,12.30
2023-03-20T15:33:00.322Z,12.26
2023-03-20T15:35:30.955Z,12.18
2023-03-20T15:38:05.653Z,12.07
2023-03-20T15:40:49.697Z,12.01
2023-03-20T15:43:21.832Z,11.94
2023-03-20T15:45:50.776Z,11.89
2023-03-20T15:48:20.520Z,11.88
2023-03-20T15:50:54.283Z,11.88
2023-03-20T15:53:28.340Z,11.86
2023-03-20T15:56:16.891Z,11.81
2023-03-20T15:58:46.408Z,11.73
2023-03-20T16:01:18.503Z,11.70
2023-03-20T16:03:46.455Z,11.69
2023-03-20T16:06:20.736Z,11.68
2023-03-20T16:08:58.004Z,11.68
2023-03-20T16:11:25.599Z,11.63
2023-03-20T16:13:54.640Z,11.59
2023-03-20T16:16:52.435Z,11.58
2023-03-20T16:19:21.087Z,11.57
2023-03-20T16:21:51.739Z,11.54
2023-03-20T16:24:23.161Z,11.52
2023-03-20T16:26:53.449Z,11.45
2023-03-20T16:29:22.749Z,11.41
2023-03-20T16:31:56.545Z,11.38
2023-03-20T16:34:27.685Z,11.34
2023-03-20T16:36:58.455Z,11.31
2023-03-20T16:39:28.923Z,11.27
2023-03-20T16:42:22.468Z,11.23
2023-03-20T16:44:55.611Z,11.17
2023-03-20T16:47:34.076Z,11.10
2023-03-20T16:50:18.723Z,11.03
2023-03-20T16:52:50.249Z,10.97
2023-03-20T16:55:23.573Z,10.95
2023-03-20T16:57:55.290Z,10.91
2023-03-20T17:00:27.463Z,10.85
2023-03-20T17:03:06.787Z,10.81
2023-03-20T17:05:49.066Z,10.78
2023-03-20T17:08:24.246Z,10.75
2023-03-20T17:10:56.582Z,10.71
2023-03-20T17:13:24.236Z,10.69
2023-03-20T17:15:51.976Z,10.63
2023-03-20T17:18:20.964Z,10.61
2023-03-20T17:20:48.629Z,10.59
2023-03-20T17:23:20.617Z,10.55
2023-03-20T17:25:49.161Z,10.52
2023-03-20T17:28:20.457Z,10.49
2023-03-20T17:30:50.022Z,10.44
2023-03-20T17:33:20.930Z,10.40
2023-03-20T17:35:50.331Z,10.36
2023-03-20T17:38:21.367Z,10.33
2023-03-20T17:40:50.403Z,10.29
2023-03-20T17:43:19.591Z,10.26
2023-03-20T17:45:48.432Z,10.25
2023-03-20T17:48:18.504Z,10.22
2023-03-20T17:50:46.634Z,10.18
2023-03-20T17:53:21.175Z,10.13
2023-03-20T17:55:48.946Z,10.09
2023-03-20T17:58:18.390Z,10.05
2023-03-20T18:00:46.188Z,10.02
2023-03-20T18:03:15.309Z,10.01
2023-03-20T18:05:43.374Z,10.00
2023-03-20T18:08:14.909Z,9.98
2023-03-20T18:10:44.595Z,9.96
2023-03-20T18:13:12.269Z,9.91
2023-03-20T18:15:40.687Z,9.87
2023-03-20T18:18:08.966Z,9.85
2023-03-20T18:20:39.572Z,9.81
2023-03-20T18:23:07.386Z,9.76
2023-03-20T18:25:36.091Z,9.65
2023-03-20T18:28:07.100Z,9.61
2023-03-20T18:30:36.855Z,9.57
2023-03-20T18:33:05.674Z,9.52
2023-03-20T18:35:33.694Z,9.49
2023-03-20T18:38:01.721Z,9.46
2023-03-20T18:40:31.292Z,9.42
2023-03-20T18:42:59.479Z,9.36
2023-03-20T18:45:30.735Z,9.34
2023-03-20T18:47:59.724Z,9.32
2023-03-20T18:50:30.388Z,9.29
2023-03-20T18:52:59.396Z,9.27
2023-03-20T18:55:28.822Z,9.24
2023-03-20T18:57:57.212Z,9.22
2023-03-20T19:00:27.088Z,9.18
2023-03-20T19:02:57.642Z,9.16
2023-03-20T19:05:28.687Z,9.16
2023-03-20T19:07:56.832Z,9.12
2023-03-20T19:10:28.767Z,9.08
2023-03-20T19:12:57.626Z,9.08
2023-03-20T19:15:27.412Z,9.04
2023-03-20T19:17:57.039Z,9.03
2023-03-20T19:20:33.930Z,9.02
2023-03-20T19:23:02.651Z,9.00
2023-03-20T19:25:31.513Z,8.97
2023-03-20T19:28:00.007Z,8.95
2023-03-20T19:30:32.478Z,8.93
2023-03-20T19:33:01.732Z,8.91
2023-03-20T19:35:54.512Z,8.89
2023-03-20T19:38:19.848Z,8.86
2023-03-20T19:40:49.112Z,8.86
2023-03-20T19:43:17.797Z,8.85
2023-03-20T19:45:45.977Z,8.83
2023-03-20T19:48:17.305Z,8.80
2023-03-20T19:50:46.837Z,8.78
2023-03-20T19:53:17.171Z,8.78
2023-03-20T19:55:45.663Z,8.77
2023-03-20T19:58:13.946Z,8.77
2023-03-20T20:00:59.929Z,8.74
2023-03-20T20:03:31.257Z,8.70
2023-03-20T20:06:00.329Z,8.67
2023-03-20T20:08:44.265Z,8.66
2023-03-20T20:11:15.677Z,8.64
2023-03-20T20:14:04.297Z,8.61
2023-03-20T20:16:31.799Z,8.58
2023-03-20T20:19:02.422Z,8.57
2023-03-20T20:24:18.122Z,8.53
2023-03-20T20:26:54.367Z,8.51
2023-03-20T20:29:24.516Z,8.50
2023-03-20T20:31:52.396Z,8.48
2023-03-20T20:35:29.925Z,8.47
2023-03-20T20:37:51.591Z,8.46
2023-03-20T20:40:02.279Z,8.44
2023-03-20T20:42:30.285Z,8.42
2023-03-20T20:44:57.953Z,8.42
2023-03-20T20:47:25.718Z,8.41
2023-03-20T20:49:54.741Z,8.40
2023-03-20T20:52:22.571Z,8.39
2023-03-20T20:54:50.337Z,8.39
2023-03-20T20:57:18.210Z,8.39
2023-03-20T20:59:46.161Z,8.36
2023-03-20T21:02:15.885Z,8.37
2023-03-20T21:04:44.477Z,8.37
2023-03-20T21:07:14.103Z,8.36
2023-03-20T21:09:42.223Z,8.35
2023-03-20T21:12:22.850Z,8.35
2023-03-20T21:15:01.354Z,8.34
2023-03-20T21:17:29.814Z,8.34
2023-03-20T21:20:00.421Z,8.34
2023-03-20T21:22:31.198Z,8.33
2023-03-20T21:25:13.519Z,8.32
2023-03-20T21:27:41.823Z,8.31
2023-03-20T21:30:10.650Z,8.30
2023-03-20T21:32:39.823Z,8.29
2023-03-20T21:35:09.314Z,8.27
2023-03-20T21:40:26.629Z,8.25
2023-03-20T21:42:54.297Z,8.24
2023-03-20T21:48:49.705Z,8.22
2023-03-20T21:51:49.280Z,8.21
2023-03-20T21:54:46.121Z,8.22
2023-03-20T22:02:21.311Z,8.20
2023-03-20T22:05:34.564Z,8.19
2023-03-20T22:08:26.681Z,8.18
2023-03-20T22:11:26.178Z,8.19
2023-03-20T22:19:45.777Z,8.14
2023-03-20T22:22:29.688Z,8.13
2023-03-20T22:25:16.670Z,8.12
2023-03-20T22:31:05.453Z,8.10
2023-03-20T22:46:59.423Z,8.03
2023-03-20T22:49:27.062Z,8.01
2023-03-20T22:54:43.315Z,8.02
2023-03-20T22:57:11.053Z,8.00
2023-03-20T22:59:40.284Z,8.00
2023-03-20T23:02:09.250Z,7.99
2023-03-20T23:04:36.932Z,7.98
2023-03-20T23:07:04.908Z,7.96
2023-03-20T23:09:32.496Z,7.95
2023-03-20T23:12:00.157Z,7.93
2023-03-20T23:14:30.770Z,7.92
2023-03-20T23:17:02.372Z,7.93
2023-03-20T23:19:34.359Z,7.92
2023-03-20T23:22:05.546Z,7.91
2023-03-20T23:24:33.237Z,7.90
2023-03-20T23:27:00.916Z,7.88
2023-03-20T23:29:28.566Z,7.88
2023-03-20T23:31:56.361Z,7.86
2023-03-20T23:34:25.361Z,7.86
2023-03-20T23:36:53.063Z,7.85
2023-03-20T23:39:20.922Z,7.82
2023-03-20T23:44:37.695Z,7.80
2023-03-20T23:47:19.430Z,7.81
2023-03-20T23:49:49.316Z,7.81
2023-03-20T23:52:17.149Z,7.81
2023-03-20T23:54:44.736Z,7.82
2023-03-20T23:57:12.385Z,7.81
2023-03-20T23:59:40.229Z,7.82
